Weather at Eleftherios Venizelos International Airport

Public forecast

Using degrees Celsius for public forecast. Weather courtesy of forecast.io.

Current aviation weather report (METAR) for Eleftherios Venizelos International Airport

Retrieved 2020/10/31 12:20 UTC (15 minutes ago):

LGAV 311220Z 31010KT 290V360 9999 SCT045 21/06 Q1019 NOSIG

Aviation forecast (TAF) for Eleftherios Venizelos International Airport

Retrieved 2020/10/31 12:12 UTC (23 minutes ago):

TAF TAF LGAV 311100Z 3112/0112 35009KT 9999 FEW025 BECMG 0107/0109 03015KT